Time;durP1;ratioP1;P1;durP2;ratioP2;P2;SDS_P1;SDS_P2;PMS_P1;PMS_P2;Temp;Humidity;BMP_temperature;BMP_pressure;BME280_temperature;BME280_humidity;BME280_pressure;Samples;Min_cycle;Max_cycle;Signal;HPM_P1;HPM_P2
2023/01/19 00:00:51;;;;;;;5.00;3.40;;;0.30;99.90;;;;;;5090604;28;20471;-85
2023/01/19 00:03:18;;;;;;;3.50;3.13;;;0.20;99.90;;;;;;5074474;28;20750;-85
2023/01/19 00:05:46;;;;;;;2.50;2.30;;;0.20;99.90;;;;;;5074248;28;20443;-85
2023/01/19 00:08:15;;;;;;;2.53;2.30;;;0.20;99.90;;;;;;5074900;28;20881;-85
2023/01/19 00:10:42;;;;;;;3.47;3.17;;;0.30;99.90;;;;;;5074824;28;20428;-85
2023/01/19 00:13:09;;;;;;;4.30;3.33;;;0.20;99.90;;;;;;5085535;28;20443;-85
2023/01/19 00:15:36;;;;;;;3.40;2.90;;;0.20;99.90;;;;;;5097260;28;20475;-85
2023/01/19 00:18:04;;;;;;;2.63;2.40;;;0.30;99.90;;;;;;5096888;28;20464;-85
2023/01/19 00:20:34;;;;;;;4.10;2.93;;;0.20;99.90;;;;;;5097459;28;20905;-85
2023/01/19 00:23:01;;;;;;;6.00;3.90;;;0.10;99.90;;;;;;5096842;28;20451;-86
2023/01/19 00:25:29;;;;;;;3.57;3.27;;;0.20;99.90;;;;;;5097583;28;20464;-85
2023/01/19 00:27:56;;;;;;;3.70;3.10;;;0.30;99.90;;;;;;5097286;28;20444;-85
2023/01/19 00:30:23;;;;;;;3.77;3.47;;;0.20;99.90;;;;;;5097237;28;20452;-85
2023/01/19 00:32:50;;;;;;;4.30;3.40;;;0.20;99.90;;;;;;5095533;28;20472;-85
2023/01/19 00:35:17;;;;;;;3.50;3.20;;;0.00;99.90;;;;;;5077270;28;20495;-85
2023/01/19 00:37:44;;;;;;;3.43;2.77;;;0.00;99.90;;;;;;5077264;28;20973;-85
2023/01/19 00:40:14;;;;;;;5.03;3.70;;;0.20;99.90;;;;;;5077245;28;21015;-86
2023/01/19 00:42:44;;;;;;;5.50;3.70;;;0.30;99.90;;;;;;5078163;28;20460;-85
2023/01/19 00:45:12;;;;;;;4.00;3.33;;;0.30;99.90;;;;;;5076875;28;20464;-86
2023/01/19 00:47:39;;;;;;;4.03;3.63;;;0.30;99.90;;;;;;5082967;28;20985;-85
2023/01/19 00:50:07;;;;;;;4.43;4.03;;;0.40;99.90;;;;;;5096637;28;20854;-86
2023/01/19 00:52:34;;;;;;;4.20;3.80;;;0.40;99.90;;;;;;5096731;28;20863;-86
2023/01/19 00:55:01;;;;;;;3.97;3.67;;;0.30;99.90;;;;;;5096558;28;20501;-86
2023/01/19 00:57:28;;;;;;;4.40;3.67;;;0.40;99.90;;;;;;5096895;28;20835;-86
2023/01/19 00:59:56;;;;;;;5.80;4.30;;;0.30;99.90;;;;;;5097447;28;20464;-86
2023/01/19 01:02:24;;;;;;;6.47;5.87;;;0.40;99.90;;;;;;5096809;28;20471;-86
2023/01/19 01:04:55;;;;;;;7.00;6.17;;;0.40;99.90;;;;;;5096920;28;20424;-85
2023/01/19 01:07:23;;;;;;;6.33;5.43;;;0.40;99.90;;;;;;5096941;28;20452;-85
2023/01/19 01:09:50;;;;;;;10.33;6.87;;;0.40;99.90;;;;;;5096603;28;20467;-85
2023/01/19 01:12:17;;;;;;;7.87;5.10;;;0.50;99.90;;;;;;5096299;28;20505;-85
2023/01/19 01:14:44;;;;;;;6.17;5.20;;;0.50;99.90;;;;;;5096445;28;21066;-86
2023/01/19 01:17:13;;;;;;;6.90;5.57;;;0.30;99.90;;;;;;5096514;28;20573;-86
2023/01/19 01:19:40;;;;;;;6.93;5.67;;;0.20;99.90;;;;;;5096854;28;20460;-85
2023/01/19 01:22:07;;;;;;;7.40;5.67;;;0.30;99.90;;;;;;5094205;28;20822;-86
2023/01/19 01:24:34;;;;;;;8.37;5.90;;;0.30;99.90;;;;;;5096269;28;20509;-85
2023/01/19 01:27:01;;;;;;;6.47;5.57;;;0.30;99.90;;;;;;5096930;28;20478;-86
2023/01/19 01:29:28;;;;;;;5.03;4.47;;;0.30;99.90;;;;;;5093710;28;20494;-85
2023/01/19 01:31:55;;;;;;;6.17;5.03;;;0.20;99.90;;;;;;5093758;28;20440;-86
2023/01/19 01:34:24;;;;;;;6.53;5.83;;;0.30;99.90;;;;;;5078065;28;20464;-86
2023/01/19 01:36:51;;;;;;;4.90;4.40;;;0.20;99.90;;;;;;5076467;28;20987;-86
2023/01/19 01:39:18;;;;;;;7.30;5.50;;;0.20;99.90;;;;;;5080527;28;20464;-86
2023/01/19 01:41:45;;;;;;;5.20;4.70;;;0.30;99.90;;;;;;5087214;28;20467;-85
2023/01/19 01:44:48;;;;;;;5.73;5.13;;;0.30;99.90;;;;;;5094924;28;20448;-85
2023/01/19 01:47:17;;;;;;;6.20;5.70;;;0.30;99.90;;;;;;5082783;28;20452;-85
2023/01/19 01:49:46;;;;;;;6.63;4.93;;;0.40;99.90;;;;;;5097080;28;20459;-86
2023/01/19 01:52:15;;;;;;;6.07;5.47;;;0.30;99.90;;;;;;5086804;28;20494;-86
2023/01/19 01:54:43;;;;;;;5.80;5.20;;;0.20;99.90;;;;;;5096263;28;20451;-85
2023/01/19 01:57:14;;;;;;;5.20;4.70;;;0.30;99.90;;;;;;5078988;28;20449;-86
2023/01/19 01:59:45;;;;;;;6.37;5.13;;;0.20;99.90;;;;;;5077962;28;20464;-86
2023/01/19 02:05:09;;;;;;;8.17;6.00;;;-0.30;99.90;;;;;;5056827;28;20532;-86
2023/01/19 02:13:21;;;;;;;7.50;5.77;;;-0.30;99.90;;;;;;5075665;28;20489;-85
2023/01/19 02:15:50;;;;;;;7.30;5.30;;;-0.40;99.90;;;;;;5068681;28;20461;-86
2023/01/19 02:18:18;;;;;;;8.33;5.73;;;-0.50;99.90;;;;;;5057212;28;20454;-86
2023/01/19 02:20:54;;;;;;;7.87;6.00;;;-0.50;99.90;;;;;;5056533;28;20918;-86
2023/01/19 02:23:36;;;;;;;8.40;6.23;;;-0.50;99.90;;;;;;5055932;28;20477;-85
2023/01/19 02:26:04;;;;;;;7.00;5.73;;;-0.40;99.90;;;;;;5055405;28;20438;-86
2023/01/19 02:28:31;;;;;;;7.87;7.07;;;-0.50;99.90;;;;;;5054833;28;20950;-86
2023/01/19 02:30:58;;;;;;;9.13;7.00;;;-0.60;99.90;;;;;;5055417;28;20472;-86
2023/01/19 02:33:25;;;;;;;6.17;5.53;;;-0.30;99.90;;;;;;5053298;28;20522;-86
2023/01/19 02:35:55;;;;;;;8.33;7.30;;;-0.30;99.90;;;;;;5060674;28;20631;-86
2023/01/19 02:38:25;;;;;;;6.00;5.30;;;-0.30;99.90;;;;;;5076010;28;20435;-86
2023/01/19 02:40:55;;;;;;;7.90;6.57;;;-0.20;99.90;;;;;;5074943;28;20499;-86
2023/01/19 02:43:24;;;;;;;7.37;6.40;;;-0.20;99.90;;;;;;5058179;28;20446;-86
2023/01/19 02:45:52;;;;;;;8.07;6.70;;;-0.30;99.90;;;;;;5055497;28;20532;-86
2023/01/19 02:48:20;;;;;;;8.40;6.87;;;-0.30;99.90;;;;;;5058860;28;20476;-86
2023/01/19 02:50:51;;;;;;;8.30;7.40;;;-0.30;99.90;;;;;;5072727;28;20445;-86
2023/01/19 02:53:48;;;;;;;6.47;5.57;;;-0.10;99.90;;;;;;5055647;28;20481;-86
2023/01/19 02:56:42;;;;;;;6.40;5.67;;;0.00;99.90;;;;;;5063883;28;20472;-86
2023/01/19 02:59:16;;;;;;;7.47;5.80;;;0.00;99.90;;;;;;5055914;28;20482;-86
2023/01/19 03:02:03;;;;;;;9.13;7.00;;;-0.10;99.90;;;;;;5055136;28;20543;-86
2023/01/19 03:04:40;;;;;;;8.00;7.00;;;-0.10;99.90;;;;;;5054631;28;20446;-86
2023/01/19 03:07:13;;;;;;;6.60;5.37;;;0.10;99.90;;;;;;5081091;22;20520;-48
2023/01/19 03:09:47;;;;;;;8.67;6.50;;;0.30;99.90;;;;;;5071956;28;20529;-50
2023/01/19 03:12:25;;;;;;;7.57;6.50;;;0.20;99.90;;;;;;5072747;28;20535;-49
2023/01/19 03:14:55;;;;;;;8.50;5.87;;;0.00;99.90;;;;;;5069920;28;20504;-50
2023/01/19 03:17:22;;;;;;;7.37;6.40;;;-0.10;99.90;;;;;;5062478;28;20813;-50
2023/01/19 03:19:53;;;;;;;7.40;6.70;;;0.00;99.90;;;;;;5067373;28;20520;-51
2023/01/19 03:22:24;;;;;;;7.67;6.47;;;0.00;99.90;;;;;;5096105;22;20516;-79
2023/01/19 03:24:53;;;;;;;7.50;6.67;;;0.00;99.90;;;;;;5072877;28;20444;-79
2023/01/19 03:27:27;;;;;;;7.47;6.70;;;0.00;99.90;;;;;;5058948;28;20466;-79
2023/01/19 03:29:57;;;;;;;8.63;6.93;;;0.00;99.90;;;;;;5054901;28;20476;-78
2023/01/19 03:32:29;;;;;;;9.00;7.30;;;-0.20;99.90;;;;;;5053560;28;20777;-79
2023/01/19 03:34:59;;;;;;;6.97;6.27;;;-0.10;99.90;;;;;;5068761;22;20486;-49
2023/01/19 03:37:27;;;;;;;9.10;7.73;;;0.00;99.90;;;;;;5050939;28;20529;-49
2023/01/19 03:39:55;;;;;;;11.67;9.37;;;0.00;99.90;;;;;;5050418;28;20462;-48
2023/01/19 03:42:25;;;;;;;22.00;16.17;;;0.00;99.90;;;;;;5034534;28;20565;-49
2023/01/19 03:44:54;;;;;;;12.63;10.17;;;0.10;99.90;;;;;;5029321;28;20533;-49
2023/01/19 03:47:23;;;;;;;23.03;15.73;;;0.10;99.90;;;;;;5029925;28;20516;-50
2023/01/19 03:49:50;;;;;;;32.33;18.50;;;0.20;99.90;;;;;;5122430;22;20575;-47
2023/01/19 03:52:17;;;;;;;36.73;20.50;;;0.00;99.90;;;;;;5069555;28;20444;-50
2023/01/19 03:54:44;;;;;;;33.70;18.77;;;0.00;99.90;;;;;;5070357;28;20432;-47
2023/01/19 03:57:11;;;;;;;13.83;12.03;;;0.00;99.90;;;;;;5072306;28;20469;-47
2023/01/19 03:59:40;;;;;;;11.93;9.50;;;0.20;99.90;;;;;;5059904;28;20538;-48
2023/01/19 04:02:06;;;;;;;9.50;8.60;;;0.30;99.90;;;;;;5052564;28;20837;-47
2023/01/19 04:04:33;;;;;;;11.43;10.30;;;0.00;99.90;;;;;;5050991;28;20981;-47
2023/01/19 04:07:00;;;;;;;9.57;8.37;;;-0.10;99.90;;;;;;5052123;28;20524;-50
2023/01/19 04:09:28;;;;;;;9.03;8.10;;;-0.20;99.90;;;;;;5052061;28;20556;-47
2023/01/19 04:11:56;;;;;;;10.40;9.30;;;-0.20;99.90;;;;;;5051856;28;20890;-48
2023/01/19 04:14:23;;;;;;;13.53;10.00;;;-0.20;99.90;;;;;;5051813;28;20446;-47
2023/01/19 04:16:51;;;;;;;12.10;8.87;;;-0.20;99.90;;;;;;5050018;28;20465;-49
2023/01/19 04:19:18;;;;;;;11.43;9.57;;;-0.20;99.90;;;;;;5051757;28;20544;-48
2023/01/19 04:21:45;;;;;;;13.70;9.53;;;-0.20;99.90;;;;;;5051794;28;20504;-47
2023/01/19 04:24:12;;;;;;;12.27;9.90;;;-0.20;99.90;;;;;;5051156;28;20484;-47
2023/01/19 04:26:38;;;;;;;15.03;10.73;;;0.00;99.90;;;;;;5052449;28;20521;-47
2023/01/19 04:29:05;;;;;;;12.80;8.73;;;0.00;99.90;;;;;;5052159;28;20560;-47
2023/01/19 04:31:34;;;;;;;13.23;10.63;;;-0.10;99.90;;;;;;5051748;28;20434;-47
2023/01/19 04:34:02;;;;;;;13.17;9.73;;;-0.40;99.90;;;;;;5050205;28;20545;-47
2023/01/19 04:36:30;;;;;;;13.87;11.37;;;-0.30;99.90;;;;;;5043880;28;20538;-47
2023/01/19 04:38:57;;;;;;;13.07;9.87;;;-0.30;99.90;;;;;;5033326;28;20466;-47
2023/01/19 04:41:23;;;;;;;10.50;8.50;;;-0.40;99.90;;;;;;5048705;28;20548;-47
2023/01/19 04:43:50;;;;;;;11.43;8.90;;;-0.50;99.90;;;;;;5052468;28;20525;-47
2023/01/19 04:46:17;;;;;;;13.83;10.40;;;-0.80;99.90;;;;;;5052600;28;20517;-47
2023/01/19 04:48:44;;;;;;;10.90;9.63;;;-0.50;99.90;;;;;;5052172;28;20505;-47
2023/01/19 04:51:12;;;;;;;15.53;10.13;;;-0.30;99.90;;;;;;5051091;28;20542;-49
2023/01/19 04:53:39;;;;;;;11.90;9.50;;;-0.10;99.90;;;;;;5050478;28;20923;-49
2023/01/19 04:56:06;;;;;;;11.40;9.20;;;-0.10;99.90;;;;;;5046665;28;20470;-47
2023/01/19 04:58:33;;;;;;;12.50;9.93;;;-0.10;99.90;;;;;;5031928;28;20462;-47
2023/01/19 05:01:00;;;;;;;13.20;10.60;;;-0.20;99.90;;;;;;5042768;28;20955;-48
2023/01/19 05:03:27;;;;;;;10.47;8.93;;;-0.30;99.90;;;;;;5050806;28;21104;-47
2023/01/19 05:05:54;;;;;;;15.87;10.27;;;-0.20;99.90;;;;;;5051632;28;20496;-49
2023/01/19 05:08:23;;;;;;;13.57;10.37;;;-0.20;99.90;;;;;;5052903;28;20437;-47
2023/01/19 05:10:50;;;;;;;15.93;10.33;;;-0.30;99.90;;;;;;5052471;28;20457;-47
2023/01/19 05:13:17;;;;;;;16.53;11.23;;;-0.20;99.90;;;;;;5039912;28;20466;-49
2023/01/19 05:15:44;;;;;;;13.27;10.17;;;-0.30;99.90;;;;;;5050443;28;20537;-47
2023/01/19 05:18:10;;;;;;;12.50;10.47;;;-0.30;99.90;;;;;;5052949;28;20541;-49
2023/01/19 05:20:38;;;;;;;14.53;11.60;;;-0.20;99.90;;;;;;5052763;28;20528;-47
2023/01/19 05:23:05;;;;;;;15.00;9.53;;;-0.30;99.90;;;;;;5051060;28;20555;-50
2023/01/19 05:25:33;;;;;;;12.80;9.57;;;-0.40;99.90;;;;;;5049494;28;20521;-49
2023/01/19 05:28:01;;;;;;;14.20;11.53;;;-0.20;99.90;;;;;;5050821;28;20478;-47
2023/01/19 05:30:28;;;;;;;15.23;10.90;;;-0.20;99.90;;;;;;5050347;28;20462;-47
2023/01/19 05:32:55;;;;;;;13.57;10.97;;;-0.20;99.90;;;;;;5049877;28;20470;-52
2023/01/19 05:35:22;;;;;;;13.90;9.47;;;-0.30;99.90;;;;;;5049586;28;20528;-48
2023/01/19 05:37:49;;;;;;;17.30;11.77;;;-0.30;99.90;;;;;;5048844;28;20858;-47
2023/01/19 05:40:16;;;;;;;16.17;10.13;;;-0.30;99.90;;;;;;5051456;28;20500;-49
2023/01/19 05:42:45;;;;;;;17.37;11.60;;;-0.20;99.90;;;;;;5049726;28;20505;-49
2023/01/19 05:45:12;;;;;;;14.40;12.07;;;-0.10;99.90;;;;;;5038182;28;20465;-49
2023/01/19 05:47:39;;;;;;;9.47;7.30;;;0.00;99.90;;;;;;5050225;28;21113;-47
2023/01/19 05:50:07;;;;;;;6.90;5.80;;;-0.30;99.90;;;;;;5049297;28;20472;-47
2023/01/19 05:52:34;;;;;;;12.53;9.07;;;-0.60;99.90;;;;;;5032353;28;20521;-47
2023/01/19 05:55:01;;;;;;;12.77;8.27;;;-0.70;99.90;;;;;;5038259;28;20473;-49
2023/01/19 05:57:27;;;;;;;8.83;6.93;;;-0.40;99.90;;;;;;5048938;28;20532;-47
2023/01/19 05:59:56;;;;;;;7.13;6.00;;;-0.60;99.90;;;;;;5047736;28;20554;-48
2023/01/19 06:02:27;;;;;;;13.47;8.87;;;-0.50;99.90;;;;;;5041477;28;20903;-47
2023/01/19 06:04:54;;;;;;;11.13;8.80;;;-0.30;99.90;;;;;;5041360;28;20454;-47
2023/01/19 06:07:21;;;;;;;12.27;8.80;;;-0.30;99.90;;;;;;5041006;28;20483;-47
2023/01/19 06:09:48;;;;;;;9.60;7.50;;;-0.30;99.90;;;;;;5049028;28;20496;-47
2023/01/19 06:12:15;;;;;;;8.57;7.47;;;-0.40;99.90;;;;;;5048910;28;20867;-46
2023/01/19 06:14:42;;;;;;;11.17;8.13;;;-0.50;99.90;;;;;;5042504;28;20481;-46
2023/01/19 06:17:10;;;;;;;8.93;7.33;;;-0.50;99.90;;;;;;5045219;28;20529;-47
2023/01/19 06:19:37;;;;;;;10.40;7.33;;;-0.50;99.90;;;;;;5050441;28;20545;-46
2023/01/19 06:22:04;;;;;;;10.50;8.27;;;-0.50;99.90;;;;;;5046627;28;20530;-47
2023/01/19 06:24:31;;;;;;;11.77;8.00;;;-0.50;99.90;;;;;;5038032;28;20434;-47
2023/01/19 06:26:59;;;;;;;17.97;13.50;;;-0.60;99.90;;;;;;5041312;28;20453;-47
2023/01/19 06:29:26;;;;;;;24.13;12.57;;;-0.40;99.90;;;;;;5038806;28;20505;-47
2023/01/19 06:31:54;;;;;;;10.93;9.70;;;-0.30;99.90;;;;;;5031462;28;20482;-47
2023/01/19 06:34:25;;;;;;;24.30;16.43;;;-0.60;99.90;;;;;;5030303;28;20848;-45
2023/01/19 06:36:52;;;;;;;8.43;6.90;;;-0.60;99.90;;;;;;5031211;28;21000;-47
2023/01/19 06:39:19;;;;;;;9.10;7.90;;;-0.50;99.90;;;;;;5031397;28;20466;-47
2023/01/19 06:41:46;;;;;;;12.93;7.83;;;-0.30;99.90;;;;;;5031613;28;20470;-47
2023/01/19 06:44:13;;;;;;;10.10;6.77;;;-0.20;99.90;;;;;;5035800;28;20569;-47
2023/01/19 06:46:40;;;;;;;12.13;7.60;;;-0.10;99.90;;;;;;5040572;28;20462;-48
2023/01/19 06:49:07;;;;;;;9.53;7.33;;;-0.20;99.90;;;;;;5039092;28;20552;-47
2023/01/19 06:51:35;;;;;;;15.27;11.07;;;-0.30;99.90;;;;;;5036652;28;20522;-47
2023/01/19 06:54:02;;;;;;;10.20;8.53;;;-0.40;99.90;;;;;;5029102;28;20489;-50
2023/01/19 06:56:29;;;;;;;14.57;12.13;;;-0.30;99.90;;;;;;5049525;28;20488;-47
2023/01/19 06:58:56;;;;;;;20.77;13.37;;;-0.40;99.90;;;;;;5049128;28;20567;-47
2023/01/19 07:01:23;;;;;;;17.30;13.50;;;-0.30;99.90;;;;;;5048849;28;20526;-48
2023/01/19 07:03:50;;;;;;;9.67;8.67;;;-0.40;99.90;;;;;;5049170;28;20505;-47
2023/01/19 07:06:17;;;;;;;10.10;7.97;;;-0.20;99.90;;;;;;5050341;28;20939;-49
2023/01/19 07:08:45;;;;;;;19.57;12.53;;;-0.20;99.90;;;;;;5050692;28;20556;-47
2023/01/19 07:11:13;;;;;;;11.03;6.93;;;-0.30;99.90;;;;;;5050171;28;20441;-48
2023/01/19 07:13:41;;;;;;;9.37;7.80;;;-0.60;99.90;;;;;;5049032;28;20503;-48
2023/01/19 07:16:11;;;;;;;9.57;8.33;;;-0.60;99.90;;;;;;5047824;28;20446;-49
2023/01/19 07:18:39;;;;;;;13.90;10.47;;;-0.50;99.90;;;;;;5049407;28;20494;-49
2023/01/19 07:21:07;;;;;;;11.30;8.63;;;-0.30;99.90;;;;;;5049567;28;20521;-47
2023/01/19 07:23:34;;;;;;;9.87;7.67;;;-0.30;99.90;;;;;;5044754;28;20535;-43
2023/01/19 07:26:02;;;;;;;9.80;8.80;;;-0.30;99.90;;;;;;5046017;28;20860;-47
2023/01/19 07:28:30;;;;;;;14.03;10.80;;;-0.30;99.90;;;;;;5050705;28;20477;-47
2023/01/19 07:30:57;;;;;;;12.90;9.27;;;-0.50;99.90;;;;;;5054973;28;20449;-47
2023/01/19 07:33:25;;;;;;;11.80;9.13;;;-0.40;99.90;;;;;;5052222;28;20946;-47
2023/01/19 07:35:53;;;;;;;12.37;8.43;;;-0.40;99.90;;;;;;5053025;28;20454;-48
2023/01/19 07:38:20;;;;;;;14.07;9.43;;;-0.40;99.90;;;;;;5052787;28;20449;-48
2023/01/19 07:40:47;;;;;;;9.47;8.10;;;-0.50;99.90;;;;;;5051675;28;20529;-46
2023/01/19 07:43:16;;;;;;;13.40;8.60;;;-0.50;99.90;;;;;;5052316;28;20477;-47
2023/01/19 07:45:44;;;;;;;13.90;10.20;;;-0.50;99.90;;;;;;5053189;28;20680;-47
2023/01/19 07:48:10;;;;;;;16.87;9.30;;;-0.20;99.90;;;;;;5053947;28;20524;-49
2023/01/19 07:50:37;;;;;;;12.87;9.43;;;-0.50;99.90;;;;;;5053392;28;20536;-48
2023/01/19 07:53:08;;;;;;;13.00;10.40;;;-0.60;99.90;;;;;;5052740;28;20875;-47
2023/01/19 07:55:36;;;;;;;14.70;10.70;;;-0.70;99.90;;;;;;5053503;28;20445;-47
2023/01/19 07:58:06;;;;;;;12.70;10.37;;;-0.50;99.90;;;;;;5054057;28;20480;-48
2023/01/19 08:00:34;;;;;;;11.50;9.30;;;-0.30;99.90;;;;;;5054054;28;20568;-49
2023/01/19 08:03:03;;;;;;;11.37;9.77;;;-0.20;99.90;;;;;;5052772;28;20508;-48
2023/01/19 08:05:30;;;;;;;12.20;10.37;;;-0.30;99.90;;;;;;5053885;28;20477;-47
2023/01/19 08:07:57;;;;;;;12.27;10.27;;;-0.50;99.90;;;;;;5053924;28;20868;-48
2023/01/19 08:10:25;;;;;;;12.60;9.83;;;-0.60;99.90;;;;;;5054251;28;20468;-47
2023/01/19 08:12:52;;;;;;;12.93;9.80;;;-0.60;99.90;;;;;;5053489;28;20904;-44
2023/01/19 08:15:21;;;;;;;17.67;11.80;;;-0.70;99.90;;;;;;5052268;28;20532;-47
2023/01/19 08:17:56;;;;;;;16.03;11.70;;;-0.60;99.90;;;;;;5054217;28;20448;-48
2023/01/19 08:20:23;;;;;;;17.40;11.77;;;-0.60;99.90;;;;;;5053985;28;20461;-47
2023/01/19 08:22:58;;;;;;;16.60;11.53;;;-0.50;99.90;;;;;;5053616;28;20564;-47
2023/01/19 08:25:26;;;;;;;13.93;10.37;;;-0.40;99.90;;;;;;5053178;28;20437;-47
2023/01/19 08:27:54;;;;;;;17.07;12.10;;;-0.40;99.90;;;;;;5053356;28;20982;-47
2023/01/19 08:30:22;;;;;;;14.10;11.97;;;-0.50;99.90;;;;;;5053229;28;21000;-47
2023/01/19 08:32:49;;;;;;;12.50;10.10;;;-0.30;99.90;;;;;;5053788;28;20437;-47
2023/01/19 08:35:17;;;;;;;18.50;12.27;;;-0.50;99.90;;;;;;5052393;28;20492;-47
2023/01/19 08:37:44;;;;;;;15.83;11.90;;;-0.40;99.90;;;;;;5053876;28;20520;-46
2023/01/19 08:40:12;;;;;;;11.50;9.30;;;-0.40;99.90;;;;;;5052912;28;20466;-48
2023/01/19 08:42:39;;;;;;;13.73;11.00;;;-0.40;99.90;;;;;;5052677;28;20526;-49
2023/01/19 08:45:08;;;;;;;12.33;9.30;;;-0.30;99.90;;;;;;5052398;28;20469;-47
2023/01/19 08:47:35;;;;;;;14.80;11.83;;;-0.10;99.90;;;;;;5053310;28;20445;-47
2023/01/19 08:50:02;;;;;;;10.90;8.10;;;-0.30;99.90;;;;;;5053154;28;20496;-49
2023/01/19 08:52:30;;;;;;;9.00;5.70;;;-0.90;99.90;;;;;;5053397;28;20516;-46
2023/01/19 08:54:57;;;;;;;8.80;6.70;;;-0.60;99.90;;;;;;5052217;28;20470;-48
2023/01/19 08:57:24;;;;;;;8.43;6.30;;;-0.30;99.90;;;;;;5052836;28;20951;-47
2023/01/19 08:59:50;;;;;;;10.53;6.20;;;-0.50;99.90;;;;;;5053324;28;20548;-47
2023/01/19 09:02:17;;;;;;;9.20;7.03;;;-0.50;99.90;;;;;;5052727;28;20477;-47
2023/01/19 09:04:44;;;;;;;7.13;6.40;;;-0.50;99.90;;;;;;5051990;28;20569;-47
2023/01/19 09:07:11;;;;;;;6.33;5.60;;;-0.30;99.90;;;;;;5052559;28;20485;-47
2023/01/19 09:09:42;;;;;;;7.33;5.87;;;-0.50;99.90;;;;;;5052730;28;21052;-46
2023/01/19 09:12:09;;;;;;;6.70;5.67;;;-0.50;99.90;;;;;;5053340;28;20445;-46
2023/01/19 09:14:36;;;;;;;5.93;4.63;;;-0.40;99.90;;;;;;5051627;28;20467;-50
2023/01/19 09:17:03;;;;;;;7.10;6.37;;;-0.50;99.90;;;;;;5051583;28;20481;-47
2023/01/19 09:19:29;;;;;;;8.87;5.20;;;-0.30;99.90;;;;;;5052726;28;20966;-47
2023/01/19 09:21:58;;;;;;;4.97;4.07;;;-0.40;99.90;;;;;;5052904;28;20480;-47
2023/01/19 09:24:25;;;;;;;7.13;6.37;;;-0.30;99.90;;;;;;5050951;28;20469;-50
2023/01/19 09:26:53;;;;;;;6.57;5.83;;;-0.10;99.90;;;;;;5051184;28;20526;-46
2023/01/19 09:29:20;;;;;;;6.00;5.40;;;-0.20;99.90;;;;;;5050712;28;20888;-47
2023/01/19 09:31:47;;;;;;;12.03;6.20;;;-0.20;99.90;;;;;;5050942;28;20449;-48
2023/01/19 09:34:14;;;;;;;6.77;6.07;;;-0.10;99.90;;;;;;5049843;28;21091;-46
2023/01/19 09:36:41;;;;;;;10.47;6.57;;;-0.10;99.90;;;;;;5051591;28;20453;-48
2023/01/19 09:39:09;;;;;;;8.47;5.63;;;0.00;99.90;;;;;;5051026;28;20505;-46
2023/01/19 09:41:38;;;;;;;6.47;5.53;;;0.00;99.90;;;;;;5052260;28;20809;-47
2023/01/19 09:44:13;;;;;;;7.00;5.60;;;0.00;99.90;;;;;;5051080;28;20480;-45
2023/01/19 09:46:41;;;;;;;6.10;5.50;;;0.10;99.90;;;;;;5052100;28;20507;-47
2023/01/19 09:49:13;;;;;;;7.43;5.43;;;0.20;99.90;;;;;;5078214;22;20827;-84
2023/01/19 09:51:44;;;;;;;9.90;6.53;;;0.30;99.90;;;;;;5072908;28;20441;-84
2023/01/19 09:54:14;;;;;;;9.67;6.40;;;0.20;99.90;;;;;;5072840;28;20502;-84
2023/01/19 09:56:42;;;;;;;8.00;5.53;;;0.10;99.90;;;;;;5073477;28;20499;-84
2023/01/19 09:59:25;;;;;;;9.10;6.30;;;0.20;99.90;;;;;;5073313;28;20485;-85
2023/01/19 10:02:19;;;;;;;6.10;5.20;;;0.20;99.90;;;;;;5073119;28;20468;-84
2023/01/19 10:04:57;;;;;;;7.10;6.40;;;0.40;99.90;;;;;;5085488;22;20497;-51
2023/01/19 10:07:35;;;;;;;7.67;6.03;;;0.50;99.90;;;;;;5070910;28;20441;-49
2023/01/19 10:10:10;;;;;;;7.17;5.70;;;0.30;99.90;;;;;;5070270;28;20488;-48
2023/01/19 10:12:51;;;;;;;7.70;5.50;;;0.30;99.90;;;;;;5070520;28;20519;-49
2023/01/19 10:15:28;;;;;;;6.90;5.33;;;0.40;99.90;;;;;;5068378;28;20516;-50
2023/01/19 10:18:06;;;;;;;6.40;5.43;;;0.10;99.90;;;;;;5070576;28;20528;-49
2023/01/19 10:20:38;;;;;;;6.43;5.80;;;0.20;99.90;;;;;;5070250;28;20540;-49
2023/01/19 10:23:18;;;;;;;5.80;5.00;;;0.30;99.90;;;;;;5070865;28;21007;-49
2023/01/19 10:25:46;;;;;;;7.87;4.73;;;0.10;99.90;;;;;;5071937;28;20519;-47
2023/01/19 10:28:15;;;;;;;8.70;6.50;;;0.10;99.90;;;;;;5071406;28;20531;-49
2023/01/19 10:30:46;;;;;;;9.27;7.10;;;0.10;99.90;;;;;;5071295;28;20542;-49
2023/01/19 10:33:14;;;;;;;5.43;4.77;;;0.10;99.90;;;;;;5070348;28;21009;-50
2023/01/19 10:35:41;;;;;;;6.23;5.00;;;0.20;99.90;;;;;;5071231;28;20938;-49
2023/01/19 10:38:14;;;;;;;6.23;5.10;;;0.40;99.90;;;;;;5073117;28;20453;-50
2023/01/19 10:40:48;;;;;;;6.70;5.60;;;0.60;99.90;;;;;;5073566;28;20503;-51
2023/01/19 10:43:38;;;;;;;6.03;5.23;;;0.80;99.90;;;;;;5073395;28;20475;-53
2023/01/19 10:46:08;;;;;;;7.07;5.23;;;0.80;99.90;;;;;;5073195;28;20484;-51
2023/01/19 10:48:40;;;;;;;6.70;6.10;;;0.50;99.90;;;;;;5070987;28;20468;-49
2023/01/19 10:51:10;;;;;;;7.70;6.10;;;0.50;99.90;;;;;;5071115;28;20553;-51
2023/01/19 10:53:37;;;;;;;6.47;5.80;;;0.50;99.90;;;;;;5070155;28;20922;-50
2023/01/19 10:56:14;;;;;;;8.03;6.60;;;0.50;99.90;;;;;;5071180;28;21005;-50
2023/01/19 10:58:41;;;;;;;9.23;6.43;;;0.60;99.90;;;;;;5064627;28;20461;-50
2023/01/19 11:01:19;;;;;;;5.77;4.90;;;0.60;99.90;;;;;;5059497;28;20504;-50
2023/01/19 11:03:46;;;;;;;7.57;5.83;;;0.70;99.90;;;;;;5061562;28;20581;-50
2023/01/19 11:06:25;;;;;;;5.40;4.23;;;0.80;99.90;;;;;;5069002;28;20914;-53
2023/01/19 11:09:08;;;;;;;5.23;4.73;;;0.50;99.90;;;;;;5063169;28;20451;-50
2023/01/19 11:11:42;;;;;;;6.10;4.23;;;0.50;99.90;;;;;;5068779;28;20540;-54
2023/01/19 11:14:12;;;;;;;6.07;4.83;;;0.70;99.90;;;;;;5061678;28;20498;-48
2023/01/19 11:16:46;;;;;;;7.47;5.87;;;0.70;99.90;;;;;;5058828;28;20529;-49
2023/01/19 11:19:21;;;;;;;5.77;5.13;;;0.50;99.90;;;;;;5058092;28;20992;-48
2023/01/19 11:21:48;;;;;;;8.03;4.17;;;0.60;99.90;;;;;;5054041;28;20445;-50
2023/01/19 11:24:16;;;;;;;5.70;4.57;;;0.70;99.90;;;;;;5069378;28;20556;-50
2023/01/19 11:26:45;;;;;;;6.70;5.60;;;0.40;99.90;;;;;;5048818;28;20512;-50
2023/01/19 11:29:18;;;;;;;8.37;5.80;;;0.60;99.90;;;;;;5049414;28;21017;-49
2023/01/19 11:31:47;;;;;;;5.80;5.30;;;0.60;99.90;;;;;;5051017;28;20473;-50
2023/01/19 11:34:30;;;;;;;5.60;4.07;;;0.80;99.90;;;;;;5058058;28;20448;-51
2023/01/19 11:36:58;;;;;;;7.10;4.70;;;0.80;99.90;;;;;;5063310;28;20997;-50
2023/01/19 11:39:27;;;;;;;5.80;5.20;;;0.80;99.90;;;;;;5060135;28;20562;-52
2023/01/19 11:41:56;;;;;;;8.20;4.87;;;0.90;99.90;;;;;;5071028;28;20448;-51
2023/01/19 11:44:27;;;;;;;7.90;5.57;;;0.80;99.90;;;;;;5058166;28;20528;-50
2023/01/19 11:46:58;;;;;;;6.37;5.87;;;0.80;99.90;;;;;;5063308;28;20540;-50
2023/01/19 11:49:36;;;;;;;5.97;5.37;;;0.90;99.90;;;;;;5070219;28;20496;-52
2023/01/19 11:52:06;;;;;;;6.63;5.70;;;0.70;99.90;;;;;;5064391;28;20528;-49
2023/01/19 11:54:37;;;;;;;6.70;4.50;;;0.70;99.90;;;;;;5057539;28;20529;-49
2023/01/19 11:57:12;;;;;;;9.83;8.33;;;0.80;99.90;;;;;;5058338;28;20543;-50
2023/01/19 11:59:39;;;;;;;5.57;5.00;;;0.80;99.90;;;;;;5051975;28;20488;-51
2023/01/19 12:02:19;;;;;;;7.77;5.23;;;0.80;99.90;;;;;;5056556;28;20528;-51
2023/01/19 12:04:49;;;;;;;6.47;5.30;;;0.70;99.90;;;;;;5054276;28;20512;-50
2023/01/19 12:07:22;;;;;;;9.93;5.57;;;0.80;99.90;;;;;;5058480;28;20473;-50
2023/01/19 12:09:53;;;;;;;8.10;5.60;;;0.60;99.90;;;;;;5059652;28;20492;-50
2023/01/19 12:12:27;;;;;;;8.97;5.60;;;0.40;99.90;;;;;;5048898;28;20438;-50
2023/01/19 12:15:00;;;;;;;51.00;33.50;;;0.50;99.90;;;;;;5049092;28;20504;-50
2023/01/19 12:17:31;;;;;;;82.33;45.97;;;0.80;99.90;;;;;;5054652;28;20507;-50
2023/01/19 12:20:05;;;;;;;17.57;13.70;;;0.90;99.90;;;;;;5060037;28;20556;-50
2023/01/19 12:22:41;;;;;;;8.00;6.80;;;0.90;99.90;;;;;;5068228;28;20432;-51
2023/01/19 12:25:19;;;;;;;11.13;7.77;;;0.90;99.90;;;;;;5064413;28;20591;-51
2023/01/19 12:27:48;;;;;;;9.20;6.00;;;1.10;99.90;;;;;;5059725;28;20478;-51
2023/01/19 12:30:20;;;;;;;9.00;6.20;;;1.00;99.90;;;;;;5062608;28;20997;-50
2023/01/19 12:32:50;;;;;;;9.30;6.00;;;1.10;99.90;;;;;;5063687;28;20469;-49
2023/01/19 12:35:55;;;;;;;7.17;5.73;;;1.10;99.90;;;;;;5059957;28;20781;-50
2023/01/19 12:38:44;;;;;;;7.63;5.90;;;0.90;99.90;;;;;;5051609;28;20484;-50
2023/01/19 12:41:26;;;;;;;9.03;6.07;;;0.80;99.90;;;;;;5060221;28;20469;-50
2023/01/19 12:44:23;;;;;;;7.00;5.47;;;0.80;99.90;;;;;;5064454;28;20527;-51
2023/01/19 12:46:54;;;;;;;6.27;5.50;;;1.10;99.90;;;;;;5050691;28;20871;-53
2023/01/19 12:49:28;;;;;;;7.50;6.50;;;0.90;99.90;;;;;;5052388;28;20465;-52
2023/01/19 12:52:18;;;;;;;9.80;7.10;;;0.70;99.90;;;;;;5052487;28;20438;-50
2023/01/19 12:54:53;;;;;;;7.37;5.93;;;0.80;99.90;;;;;;5052069;28;20941;-51
2023/01/19 12:57:23;;;;;;;7.60;5.90;;;0.60;99.90;;;;;;5052660;28;20528;-51
2023/01/19 12:59:57;;;;;;;5.63;5.13;;;0.60;99.90;;;;;;5053639;28;20750;-51
2023/01/19 13:02:52;;;;;;;8.60;6.53;;;0.60;99.90;;;;;;5055244;28;20434;-52
2023/01/19 13:05:40;;;;;;;7.63;6.30;;;0.80;99.90;;;;;;5054136;28;20476;-51
2023/01/19 13:08:49;;;;;;;10.27;6.87;;;0.80;99.90;;;;;;5037185;28;20469;-51